Shillong Airport
VEBI : now visible

Airfield :











YOU CAN JOIN US ON...

 
LOGIN :

Register | Disclaimer

   EN    FR    IT 

 









Legend :    VFR   Marginal VFR   IFR   Intensive IFR   Very Intensive IFR
Visi :
Ceiling :
>= 8 km
>= 3000ft
5 to 8 km
1000 to 3000 ft
1500m to 5 km
500 to 1000 ft
800 to 1500m
200 to 500 ft
< 800m
< 200 ft
Symbols :   Thunderstorms  Fog  Heavy snow  Heavy precipitations  Wind > 20 kt






- Airport Elevation : 2910 ft
- IATA code : SHL


VEBI - Shillong

CURRENT METAR :
  • 250600Z 07005KT 5000 HZ SCT020 32/22 Q1007 NO SIG

EXPIRED METARs :
  • 250530Z 04004KT 5000 HZ SCT020 32/22 Q1007 NO SIG
  • 250500Z 09005KT 5000 HZ SCT020 31/22 Q1007 NO SIG
  • 250430Z 07006KT 5000 HZ SCT020 30/22 Q1008 NO SIG
  • 250400Z 07003KT 5000 HZ SCT020 30/22 Q1008 NO SIG
  • 250330Z 00000KT 3500 HZ FEW020 30/22 Q1008 BECMG 5000 HZ
  • 250300Z 11003KT 2500 HZ FEW020 30/22 Q1008 BECMG 4000 HZ

TAF TAF VEBI
Valid from the 25 at 06:00 until the 25 at 15:00 UTC


250500Z 2506/2515 02005KT 5000 HZ FEW020
BECMG 2513/2515 00000KT 3000 BR SCT018 FEW025CB BKN100
VECF FIR / Asia



MET'MAP, your aeronautical weather chart ! - Copyright ORBIFLY December 2007 - Disclaimer

ORBIFLY MET'MAP TEAM :

Programming & Development : Alexandra Zaïnal
Original concept : Baudouin d'Aumeries
Technical & hardware support : Manuel Goepfert
Assistance : Marc-Olivier Méhu




SOURCES & CREDITS :

   NOAA       Earth
Advisory